sensor_id;sensor_type;location;lat;lon;timestamp;P1;durP1;ratioP1;P2;durP2;ratioP2
29218;SDS011;16421;50.202;7.852;2022-08-20T00:00:07;0.95;;;0.65;;
29218;SDS011;16421;50.202;7.852;2022-08-20T00:05:16;0.57;;;0.50;;
29218;SDS011;16421;50.202;7.852;2022-08-20T00:10:24;0.40;;;0.40;;
29218;SDS011;16421;50.202;7.852;2022-08-20T00:15:31;0.57;;;0.40;;
29218;SDS011;16421;50.202;7.852;2022-08-20T00:25:42;0.50;;;0.40;;
29218;SDS011;16421;50.202;7.852;2022-08-20T00:30:46;0.38;;;0.30;;
29218;SDS011;16421;50.202;7.852;2022-08-20T00:35:52;0.35;;;0.30;;
29218;SDS011;16421;50.202;7.852;2022-08-20T00:40:59;0.68;;;0.40;;
29218;SDS011;16421;50.202;7.852;2022-08-20T00:46:04;0.30;;;0.30;;
29218;SDS011;16421;50.202;7.852;2022-08-20T00:51:11;0.65;;;0.20;;
29218;SDS011;16421;50.202;7.852;2022-08-20T00:56:20;0.40;;;0.25;;
29218;SDS011;16421;50.202;7.852;2022-08-20T01:01:24;0.80;;;0.20;;
29218;SDS011;16421;50.202;7.852;2022-08-20T01:06:28;0.25;;;0.22;;
29218;SDS011;16421;50.202;7.852;2022-08-20T01:11:33;0.30;;;0.30;;
29218;SDS011;16421;50.202;7.852;2022-08-20T01:16:37;0.82;;;0.50;;
29218;SDS011;16421;50.202;7.852;2022-08-20T01:21:41;0.52;;;0.40;;
29218;SDS011;16421;50.202;7.852;2022-08-20T01:31:51;0.30;;;0.30;;
29218;SDS011;16421;50.202;7.852;2022-08-20T01:37:01;0.57;;;0.30;;
29218;SDS011;16421;50.202;7.852;2022-08-20T01:42:07;0.47;;;0.35;;
29218;SDS011;16421;50.202;7.852;2022-08-20T01:47:16;1.58;;;0.40;;
29218;SDS011;16421;50.202;7.852;2022-08-20T01:52:23;0.30;;;0.30;;
29218;SDS011;16421;50.202;7.852;2022-08-20T01:57:33;0.32;;;0.20;;
29218;SDS011;16421;50.202;7.852;2022-08-20T02:02:37;0.28;;;0.28;;
29218;SDS011;16421;50.202;7.852;2022-08-20T02:07:41;0.20;;;0.20;;
29218;SDS011;16421;50.202;7.852;2022-08-20T02:12:45;0.45;;;0.30;;
29218;SDS011;16421;50.202;7.852;2022-08-20T02:17:49;1.48;;;0.30;;
29218;SDS011;16421;50.202;7.852;2022-08-20T02:22:53;0.68;;;0.45;;
29218;SDS011;16421;50.202;7.852;2022-08-20T02:28:01;0.95;;;0.40;;
29218;SDS011;16421;50.202;7.852;2022-08-20T02:33:08;0.80;;;0.45;;
29218;SDS011;16421;50.202;7.852;2022-08-20T02:38:13;0.55;;;0.30;;
29218;SDS011;16421;50.202;7.852;2022-08-20T02:43:18;0.40;;;0.30;;
29218;SDS011;16421;50.202;7.852;2022-08-20T02:48:22;0.40;;;0.32;;
29218;SDS011;16421;50.202;7.852;2022-08-20T02:53:26;0.68;;;0.43;;
29218;SDS011;16421;50.202;7.852;2022-08-20T02:58:32;0.60;;;0.50;;
29218;SDS011;16421;50.202;7.852;2022-08-20T03:03:36;0.47;;;0.30;;
29218;SDS011;16421;50.202;7.852;2022-08-20T03:08:41;0.50;;;0.40;;
29218;SDS011;16421;50.202;7.852;2022-08-20T03:13:46;0.43;;;0.30;;
29218;SDS011;16421;50.202;7.852;2022-08-20T03:18:50;1.10;;;0.30;;
29218;SDS011;16421;50.202;7.852;2022-08-20T03:23:54;0.40;;;0.32;;
29218;SDS011;16421;50.202;7.852;2022-08-20T03:28:58;0.77;;;0.50;;
29218;SDS011;16421;50.202;7.852;2022-08-20T03:34:02;2.13;;;0.30;;
29218;SDS011;16421;50.202;7.852;2022-08-20T03:39:06;0.93;;;0.40;;
29218;SDS011;16421;50.202;7.852;2022-08-20T03:44:14;0.63;;;0.40;;
29218;SDS011;16421;50.202;7.852;2022-08-20T03:49:18;0.73;;;0.40;;
29218;SDS011;16421;50.202;7.852;2022-08-20T03:54:24;0.47;;;0.40;;
29218;SDS011;16421;50.202;7.852;2022-08-20T03:59:29;0.45;;;0.35;;
29218;SDS011;16421;50.202;7.852;2022-08-20T04:04:33;0.32;;;0.20;;
29218;SDS011;16421;50.202;7.852;2022-08-20T04:09:36;0.32;;;0.32;;
29218;SDS011;16421;50.202;7.852;2022-08-20T04:14:41;0.90;;;0.40;;
29218;SDS011;16421;50.202;7.852;2022-08-20T04:19:45;0.30;;;0.30;;
29218;SDS011;16421;50.202;7.852;2022-08-20T04:24:49;1.73;;;0.43;;
29218;SDS011;16421;50.202;7.852;2022-08-20T04:29:54;0.52;;;0.47;;
29218;SDS011;16421;50.202;7.852;2022-08-20T04:34:57;2.60;;;0.70;;
29218;SDS011;16421;50.202;7.852;2022-08-20T04:40:02;0.50;;;0.50;;
29218;SDS011;16421;50.202;7.852;2022-08-20T04:45:26;0.30;;;0.30;;
29218;SDS011;16421;50.202;7.852;2022-08-20T04:50:29;0.50;;;0.50;;
29218;SDS011;16421;50.202;7.852;2022-08-20T04:55:36;0.75;;;0.47;;
29218;SDS011;16421;50.202;7.852;2022-08-20T05:00:46;1.20;;;0.50;;
29218;SDS011;16421;50.202;7.852;2022-08-20T05:05:50;0.57;;;0.50;;
29218;SDS011;16421;50.202;7.852;2022-08-20T05:10:54;0.50;;;0.50;;
29218;SDS011;16421;50.202;7.852;2022-08-20T05:16:00;0.60;;;0.50;;
29218;SDS011;16421;50.202;7.852;2022-08-20T05:21:05;0.98;;;0.60;;
29218;SDS011;16421;50.202;7.852;2022-08-20T05:26:08;0.50;;;0.40;;
29218;SDS011;16421;50.202;7.852;2022-08-20T05:31:14;0.63;;;0.40;;
29218;SDS011;16421;50.202;7.852;2022-08-20T05:36:18;1.17;;;1.00;;
29218;SDS011;16421;50.202;7.852;2022-08-20T05:41:21;0.65;;;0.60;;
29218;SDS011;16421;50.202;7.852;2022-08-20T05:46:26;0.57;;;0.57;;
29218;SDS011;16421;50.202;7.852;2022-08-20T05:51:31;0.43;;;0.43;;
29218;SDS011;16421;50.202;7.852;2022-08-20T05:56:37;1.55;;;0.82;;
29218;SDS011;16421;50.202;7.852;2022-08-20T06:01:44;0.70;;;0.70;;
29218;SDS011;16421;50.202;7.852;2022-08-20T06:06:49;0.70;;;0.70;;
29218;SDS011;16421;50.202;7.852;2022-08-20T06:11:53;0.93;;;0.60;;
29218;SDS011;16421;50.202;7.852;2022-08-20T06:17:02;0.90;;;0.80;;
29218;SDS011;16421;50.202;7.852;2022-08-20T06:22:07;0.73;;;0.60;;
29218;SDS011;16421;50.202;7.852;2022-08-20T06:27:12;0.60;;;0.60;;
29218;SDS011;16421;50.202;7.852;2022-08-20T06:32:31;0.65;;;0.60;;
29218;SDS011;16421;50.202;7.852;2022-08-20T06:37:35;0.60;;;0.60;;
29218;SDS011;16421;50.202;7.852;2022-08-20T06:42:40;0.70;;;0.65;;
29218;SDS011;16421;50.202;7.852;2022-08-20T06:47:50;0.68;;;0.63;;
29218;SDS011;16421;50.202;7.852;2022-08-20T06:52:55;0.80;;;0.70;;
29218;SDS011;16421;50.202;7.852;2022-08-20T06:58:00;0.60;;;0.60;;
29218;SDS011;16421;50.202;7.852;2022-08-20T07:03:06;0.73;;;0.70;;
29218;SDS011;16421;50.202;7.852;2022-08-20T07:08:11;0.70;;;0.60;;
29218;SDS011;16421;50.202;7.852;2022-08-20T07:13:16;0.47;;;0.40;;
29218;SDS011;16421;50.202;7.852;2022-08-20T07:18:21;0.55;;;0.50;;
29218;SDS011;16421;50.202;7.852;2022-08-20T07:23:25;0.50;;;0.47;;
29218;SDS011;16421;50.202;7.852;2022-08-20T07:28:28;1.23;;;0.73;;
29218;SDS011;16421;50.202;7.852;2022-08-20T07:33:33;0.60;;;0.60;;
29218;SDS011;16421;50.202;7.852;2022-08-20T07:38:37;0.70;;;0.70;;
29218;SDS011;16421;50.202;7.852;2022-08-20T07:43:41;1.20;;;1.00;;
29218;SDS011;16421;50.202;7.852;2022-08-20T07:48:47;0.50;;;0.50;;
29218;SDS011;16421;50.202;7.852;2022-08-20T07:53:51;2.15;;;0.60;;
29218;SDS011;16421;50.202;7.852;2022-08-20T07:58:58;0.80;;;0.80;;
29218;SDS011;16421;50.202;7.852;2022-08-20T08:04:03;1.00;;;0.90;;
29218;SDS011;16421;50.202;7.852;2022-08-20T08:09:08;3.05;;;0.52;;
29218;SDS011;16421;50.202;7.852;2022-08-20T08:14:13;0.32;;;0.32;;
29218;SDS011;16421;50.202;7.852;2022-08-20T08:19:22;0.50;;;0.50;;
29218;SDS011;16421;50.202;7.852;2022-08-20T08:24:28;0.50;;;0.47;;
29218;SDS011;16421;50.202;7.852;2022-08-20T08:29:31;0.40;;;0.40;;
29218;SDS011;16421;50.202;7.852;2022-08-20T08:34:37;0.40;;;0.30;;
29218;SDS011;16421;50.202;7.852;2022-08-20T08:39:41;0.73;;;0.50;;
29218;SDS011;16421;50.202;7.852;2022-08-20T08:44:44;0.47;;;0.47;;
29218;SDS011;16421;50.202;7.852;2022-08-20T08:54:29;0.50;;;0.50;;
29218;SDS011;16421;50.202;7.852;2022-08-20T08:59:34;1.35;;;0.80;;
29218;SDS011;16421;50.202;7.852;2022-08-20T09:04:38;0.70;;;0.50;;
29218;SDS011;16421;50.202;7.852;2022-08-20T09:09:44;1.35;;;0.80;;
29218;SDS011;16421;50.202;7.852;2022-08-20T09:14:48;0.50;;;0.50;;
29218;SDS011;16421;50.202;7.852;2022-08-20T09:19:52;0.30;;;0.22;;
29218;SDS011;16421;50.202;7.852;2022-08-20T09:24:57;0.30;;;0.30;;
29218;SDS011;16421;50.202;7.852;2022-08-20T09:30:02;0.38;;;0.20;;
29218;SDS011;16421;50.202;7.852;2022-08-20T09:35:06;0.53;;;0.30;;
29218;SDS011;16421;50.202;7.852;2022-08-20T09:40:12;0.28;;;0.28;;
29218;SDS011;16421;50.202;7.852;2022-08-20T09:45:15;0.20;;;0.13;;
29218;SDS011;16421;50.202;7.852;2022-08-20T09:50:19;0.57;;;0.20;;
29218;SDS011;16421;50.202;7.852;2022-08-20T09:55:25;0.25;;;0.10;;
29218;SDS011;16421;50.202;7.852;2022-08-20T10:00:33;0.10;;;0.10;;
29218;SDS011;16421;50.202;7.852;2022-08-20T10:05:37;0.17;;;0.10;;
29218;SDS011;16421;50.202;7.852;2022-08-20T10:10:41;0.20;;;0.10;;
29218;SDS011;16421;50.202;7.852;2022-08-20T10:15:45;0.43;;;0.17;;
29218;SDS011;16421;50.202;7.852;2022-08-20T10:20:49;0.50;;;0.10;;
29218;SDS011;16421;50.202;7.852;2022-08-20T10:25:54;0.30;;;0.10;;
29218;SDS011;16421;50.202;7.852;2022-08-20T10:30:57;0.20;;;0.20;;
29218;SDS011;16421;50.202;7.852;2022-08-20T10:36:04;0.28;;;0.13;;
29218;SDS011;16421;50.202;7.852;2022-08-20T10:41:12;0.30;;;0.10;;
29218;SDS011;16421;50.202;7.852;2022-08-20T10:46:16;0.55;;;0.20;;
29218;SDS011;16421;50.202;7.852;2022-08-20T10:51:19;0.30;;;0.20;;
29218;SDS011;16421;50.202;7.852;2022-08-20T10:56:24;0.20;;;0.10;;
29218;SDS011;16421;50.202;7.852;2022-08-20T11:01:27;0.17;;;0.10;;
29218;SDS011;16421;50.202;7.852;2022-08-20T11:06:31;0.70;;;0.30;;
29218;SDS011;16421;50.202;7.852;2022-08-20T11:11:36;0.10;;;0.10;;
29218;SDS011;16421;50.202;7.852;2022-08-20T11:16:40;0.32;;;0.30;;
29218;SDS011;16421;50.202;7.852;2022-08-20T11:21:43;0.55;;;0.40;;
29218;SDS011;16421;50.202;7.852;2022-08-20T11:26:48;0.80;;;0.40;;
29218;SDS011;16421;50.202;7.852;2022-08-20T11:31:53;0.70;;;0.55;;
29218;SDS011;16421;50.202;7.852;2022-08-20T11:36:56;1.63;;;0.95;;
29218;SDS011;16421;50.202;7.852;2022-08-20T11:42:01;0.60;;;0.28;;
29218;SDS011;16421;50.202;7.852;2022-08-20T11:47:06;0.50;;;0.22;;
29218;SDS011;16421;50.202;7.852;2022-08-20T11:52:09;0.53;;;0.40;;
29218;SDS011;16421;50.202;7.852;2022-08-20T11:57:19;1.10;;;0.65;;
29218;SDS011;16421;50.202;7.852;2022-08-20T12:02:23;1.58;;;0.85;;
29218;SDS011;16421;50.202;7.852;2022-08-20T12:07:27;1.58;;;0.55;;
29218;SDS011;16421;50.202;7.852;2022-08-20T12:12:32;2.70;;;0.60;;
29218;SDS011;16421;50.202;7.852;2022-08-20T12:17:35;3.15;;;0.50;;
29218;SDS011;16421;50.202;7.852;2022-08-20T12:22:40;0.77;;;0.60;;
29218;SDS011;16421;50.202;7.852;2022-08-20T12:27:45;0.95;;;0.40;;
29218;SDS011;16421;50.202;7.852;2022-08-20T12:37:52;0.40;;;0.40;;
29218;SDS011;16421;50.202;7.852;2022-08-20T12:42:56;2.42;;;0.45;;
29218;SDS011;16421;50.202;7.852;2022-08-20T12:48:01;0.30;;;0.30;;
29218;SDS011;16421;50.202;7.852;2022-08-20T12:53:06;1.20;;;0.50;;
29218;SDS011;16421;50.202;7.852;2022-08-20T12:58:10;0.40;;;0.30;;
29218;SDS011;16421;50.202;7.852;2022-08-20T13:03:14;0.50;;;0.40;;
29218;SDS011;16421;50.202;7.852;2022-08-20T13:08:17;0.68;;;0.60;;
29218;SDS011;16421;50.202;7.852;2022-08-20T13:13:22;1.80;;;0.40;;
29218;SDS011;16421;50.202;7.852;2022-08-20T13:18:25;0.82;;;0.35;;
29218;SDS011;16421;50.202;7.852;2022-08-20T13:23:28;0.30;;;0.30;;
29218;SDS011;16421;50.202;7.852;2022-08-20T13:28:33;0.77;;;0.40;;
29218;SDS011;16421;50.202;7.852;2022-08-20T13:38:39;1.05;;;0.20;;
29218;SDS011;16421;50.202;7.852;2022-08-20T13:43:44;1.70;;;0.20;;
29218;SDS011;16421;50.202;7.852;2022-08-20T13:53:50;0.85;;;0.50;;
29218;SDS011;16421;50.202;7.852;2022-08-20T13:58:55;2.90;;;0.60;;
29218;SDS011;16421;50.202;7.852;2022-08-20T14:09:02;0.45;;;0.35;;
29218;SDS011;16421;50.202;7.852;2022-08-20T14:14:07;0.90;;;0.68;;
29218;SDS011;16421;50.202;7.852;2022-08-20T14:19:10;1.98;;;0.45;;
29218;SDS011;16421;50.202;7.852;2022-08-20T14:24:13;0.95;;;0.60;;
29218;SDS011;16421;50.202;7.852;2022-08-20T14:29:18;0.70;;;0.70;;
29218;SDS011;16421;50.202;7.852;2022-08-20T14:34:22;0.52;;;0.52;;
29218;SDS011;16421;50.202;7.852;2022-08-20T14:39:26;1.42;;;0.80;;
29218;SDS011;16421;50.202;7.852;2022-08-20T14:44:30;2.67;;;0.77;;
29218;SDS011;16421;50.202;7.852;2022-08-20T14:54:37;1.52;;;0.80;;
29218;SDS011;16421;50.202;7.852;2022-08-20T14:59:42;0.52;;;0.50;;
29218;SDS011;16421;50.202;7.852;2022-08-20T15:09:49;1.38;;;1.00;;
29218;SDS011;16421;50.202;7.852;2022-08-20T15:14:54;0.97;;;0.60;;
29218;SDS011;16421;50.202;7.852;2022-08-20T15:19:59;0.90;;;0.57;;
29218;SDS011;16421;50.202;7.852;2022-08-20T15:25:06;6.13;;;1.52;;
29218;SDS011;16421;50.202;7.852;2022-08-20T15:30:15;0.98;;;0.68;;
29218;SDS011;16421;50.202;7.852;2022-08-20T15:35:21;2.65;;;1.48;;
29218;SDS011;16421;50.202;7.852;2022-08-20T15:40:26;2.37;;;1.20;;
29218;SDS011;16421;50.202;7.852;2022-08-20T15:45:34;1.15;;;0.60;;
29218;SDS011;16421;50.202;7.852;2022-08-20T15:56:13;1.13;;;0.60;;
29218;SDS011;16421;50.202;7.852;2022-08-20T16:01:31;1.05;;;0.80;;
29218;SDS011;16421;50.202;7.852;2022-08-20T16:06:51;1.27;;;0.75;;
29218;SDS011;16421;50.202;7.852;2022-08-20T16:12:01;1.92;;;1.23;;
29218;SDS011;16421;50.202;7.852;2022-08-20T16:17:12;1.67;;;0.70;;
29218;SDS011;16421;50.202;7.852;2022-08-20T16:22:18;1.65;;;0.90;;
29218;SDS011;16421;50.202;7.852;2022-08-20T16:27:23;4.17;;;1.33;;
29218;SDS011;16421;50.202;7.852;2022-08-20T16:32:38;2.78;;;1.30;;
29218;SDS011;16421;50.202;7.852;2022-08-20T16:37:46;2.78;;;1.30;;
29218;SDS011;16421;50.202;7.852;2022-08-20T16:43:03;2.22;;;1.10;;
29218;SDS011;16421;50.202;7.852;2022-08-20T16:48:08;2.55;;;1.40;;
29218;SDS011;16421;50.202;7.852;2022-08-20T16:53:13;2.55;;;1.35;;
29218;SDS011;16421;50.202;7.852;2022-08-20T16:58:21;2.15;;;1.25;;
29218;SDS011;16421;50.202;7.852;2022-08-20T17:03:26;1.35;;;0.70;;
29218;SDS011;16421;50.202;7.852;2022-08-20T17:08:33;1.58;;;1.00;;
29218;SDS011;16421;50.202;7.852;2022-08-20T17:13:38;1.75;;;0.88;;
29218;SDS011;16421;50.202;7.852;2022-08-20T17:18:44;2.55;;;1.08;;
29218;SDS011;16421;50.202;7.852;2022-08-20T17:23:50;4.35;;;1.13;;
29218;SDS011;16421;50.202;7.852;2022-08-20T17:28:57;2.20;;;1.40;;
29218;SDS011;16421;50.202;7.852;2022-08-20T17:34:03;2.75;;;1.35;;
29218;SDS011;16421;50.202;7.852;2022-08-20T17:39:07;2.25;;;0.80;;
29218;SDS011;16421;50.202;7.852;2022-08-20T17:44:19;2.72;;;0.98;;
29218;SDS011;16421;50.202;7.852;2022-08-20T17:49:29;3.53;;;1.10;;
29218;SDS011;16421;50.202;7.852;2022-08-20T17:54:36;4.18;;;1.45;;
29218;SDS011;16421;50.202;7.852;2022-08-20T17:59:42;2.88;;;1.20;;
29218;SDS011;16421;50.202;7.852;2022-08-20T18:04:49;2.97;;;1.20;;
29218;SDS011;16421;50.202;7.852;2022-08-20T18:09:55;2.10;;;0.98;;
29218;SDS011;16421;50.202;7.852;2022-08-20T18:15:04;4.28;;;1.17;;
29218;SDS011;16421;50.202;7.852;2022-08-20T18:20:18;3.53;;;0.90;;
29218;SDS011;16421;50.202;7.852;2022-08-20T18:25:38;2.60;;;1.08;;
29218;SDS011;16421;50.202;7.852;2022-08-20T18:30:48;1.15;;;0.80;;
29218;SDS011;16421;50.202;7.852;2022-08-20T18:36:03;2.13;;;0.88;;
29218;SDS011;16421;50.202;7.852;2022-08-20T18:41:10;3.08;;;0.82;;
29218;SDS011;16421;50.202;7.852;2022-08-20T18:46:19;5.00;;;0.80;;
29218;SDS011;16421;50.202;7.852;2022-08-20T18:51:29;4.30;;;1.02;;
29218;SDS011;16421;50.202;7.852;2022-08-20T18:56:38;1.67;;;0.85;;
29218;SDS011;16421;50.202;7.852;2022-08-20T19:01:44;5.22;;;1.00;;
29218;SDS011;16421;50.202;7.852;2022-08-20T19:06:51;1.98;;;0.88;;
29218;SDS011;16421;50.202;7.852;2022-08-20T19:17:24;4.13;;;1.23;;
29218;SDS011;16421;50.202;7.852;2022-08-20T19:22:39;1.83;;;1.00;;
29218;SDS011;16421;50.202;7.852;2022-08-20T19:27:44;3.17;;;0.98;;
29218;SDS011;16421;50.202;7.852;2022-08-20T19:32:49;3.50;;;1.27;;
29218;SDS011;16421;50.202;7.852;2022-08-20T19:37:55;1.80;;;1.23;;
29218;SDS011;16421;50.202;7.852;2022-08-20T19:43:00;2.42;;;1.40;;
29218;SDS011;16421;50.202;7.852;2022-08-20T19:48:09;2.15;;;1.17;;
29218;SDS011;16421;50.202;7.852;2022-08-20T19:53:22;2.78;;;0.85;;
29218;SDS011;16421;50.202;7.852;2022-08-20T19:58:28;2.47;;;1.35;;
29218;SDS011;16421;50.202;7.852;2022-08-20T20:03:33;3.28;;;1.17;;
29218;SDS011;16421;50.202;7.852;2022-08-20T20:08:40;2.30;;;1.00;;
29218;SDS011;16421;50.202;7.852;2022-08-20T20:13:45;4.03;;;1.25;;
29218;SDS011;16421;50.202;7.852;2022-08-20T20:18:49;2.70;;;0.88;;
29218;SDS011;16421;50.202;7.852;2022-08-20T20:24:05;2.60;;;1.20;;
29218;SDS011;16421;50.202;7.852;2022-08-20T20:29:17;4.22;;;1.30;;
29218;SDS011;16421;50.202;7.852;2022-08-20T20:34:27;4.18;;;1.13;;
29218;SDS011;16421;50.202;7.852;2022-08-20T20:39:35;2.75;;;1.23;;
29218;SDS011;16421;50.202;7.852;2022-08-20T20:44:41;2.42;;;1.15;;
29218;SDS011;16421;50.202;7.852;2022-08-20T20:49:47;2.67;;;1.27;;
29218;SDS011;16421;50.202;7.852;2022-08-20T20:55:03;2.80;;;1.00;;
29218;SDS011;16421;50.202;7.852;2022-08-20T21:00:10;1.88;;;1.15;;
29218;SDS011;16421;50.202;7.852;2022-08-20T21:05:18;3.35;;;1.40;;
29218;SDS011;16421;50.202;7.852;2022-08-20T21:10:26;2.55;;;1.08;;
29218;SDS011;16421;50.202;7.852;2022-08-20T21:15:33;5.57;;;1.17;;
29218;SDS011;16421;50.202;7.852;2022-08-20T21:20:37;1.92;;;1.00;;
29218;SDS011;16421;50.202;7.852;2022-08-20T21:25:41;1.80;;;1.05;;
29218;SDS011;16421;50.202;7.852;2022-08-20T21:30:45;2.05;;;1.08;;
29218;SDS011;16421;50.202;7.852;2022-08-20T21:35:48;1.90;;;1.00;;
29218;SDS011;16421;50.202;7.852;2022-08-20T21:40:53;4.00;;;1.40;;
29218;SDS011;16421;50.202;7.852;2022-08-20T21:45:56;2.72;;;1.10;;
29218;SDS011;16421;50.202;7.852;2022-08-20T21:51:01;2.22;;;1.25;;
29218;SDS011;16421;50.202;7.852;2022-08-20T21:56:06;2.17;;;1.20;;
